KFSI/FSI METAR and TAF weather

Enter ICAO airport designator
Station Type Date Time Source
KFSI METAR 2018/12/10 08:56 UTC NOAA

KFSI 100856Z AUTO 00000KT 10SM CLR M02/M04 A3030 RMK AO2 SLP267 T10241038 57012


Station Type Date Time Source
KFSI Decoded METAR 2018/12/10 08:56 UTC NOAA

Fort Sill, OK, United States (KFSI) 34-36N 098-24W 360M
Dec 10, 2018 - 03:56 AM EST / 2018.12.10 0856 UTC
Wind: Calm:0
Visibility: 10 mile(s):0
Sky conditions: clear
Temperature: 27.7 F (-2.4 C)
Dew Point: 25.2 F (-3.8 C)
Relative Humidity: 90%
Pressure (altimeter): 30.3 in. Hg (1026 hPa)
Pressure tendency: 0.04 inches (1.2 hPa) lower than three hours ago
ob: KFSI 100856Z AUTO 00000KT 10SM CLR M02/M04 A3030 RMK AO2 SLP267 T10241038 57012
cycle: 9

Station Type Date Time Source
KFSI TAF 2018/12/07 22:03 UTC NOAA

TAF TAF KFSI 072200Z 0722/0904 03009KT 8000 -RA OVC014 QNH3029INS
BECMG 0807/0808 02009KT 9000 -FZDZ OVC001 660001 QNH3033INS
BECMG 0809/0810 01015KT 8000 -SN OVC010 650109 QNH3029INS
BECMG 0814/0815 36012KT 9999 NSW OVC008 QNH3024INS
BECMG 0902/0903 36006KT 9999 BKN015 QNH3034INS TX03/0722Z TNM01/0816Z LAST NO
AMDS AFT 0801 NEXT 1014


Example: see airport list